createdAt,value
2018-07-31T00:02:31.251Z,24.80
2018-07-31T00:07:33.733Z,24.80
2018-07-31T00:12:36.260Z,24.60
2018-07-31T00:17:38.756Z,24.60
2018-07-31T00:22:41.364Z,24.50
2018-07-31T00:27:43.866Z,24.50
2018-07-31T00:32:46.358Z,24.40
2018-07-31T00:37:48.856Z,24.40
2018-07-31T00:42:52.101Z,24.30
2018-07-31T00:47:54.594Z,24.20
2018-07-31T00:52:57.098Z,24.30
2018-07-31T00:57:59.590Z,24.20
2018-07-31T01:03:02.073Z,24.10
2018-07-31T01:08:04.558Z,24.10
2018-07-31T01:13:07.809Z,24.00
2018-07-31T01:18:10.369Z,24.00
2018-07-31T01:23:13.688Z,23.90
2018-07-31T01:28:17.012Z,23.80
2018-07-31T01:33:19.502Z,23.80
2018-07-31T01:38:22.005Z,23.80
2018-07-31T01:43:24.495Z,23.80
2018-07-31T01:48:27.741Z,23.70
2018-07-31T01:53:30.240Z,23.70
2018-07-31T01:58:32.705Z,23.60
2018-07-31T02:03:35.184Z,23.60
2018-07-31T02:08:37.676Z,23.50
2018-07-31T02:13:40.199Z,23.50
2018-07-31T02:18:42.657Z,23.50
2018-07-31T02:23:45.137Z,23.40
2018-07-31T02:28:47.621Z,23.40
2018-07-31T02:33:50.106Z,23.30
2018-07-31T02:38:52.585Z,23.30
2018-07-31T02:43:55.073Z,23.20
2018-07-31T02:48:57.557Z,23.20
2018-07-31T02:54:00.049Z,23.20
2018-07-31T02:59:02.534Z,23.10
2018-07-31T03:04:05.031Z,23.00
2018-07-31T03:09:07.509Z,23.00
2018-07-31T03:14:09.997Z,22.90
2018-07-31T03:19:12.496Z,22.90
2018-07-31T03:24:14.978Z,22.90
2018-07-31T03:29:17.490Z,22.80
2018-07-31T03:34:19.973Z,22.80
2018-07-31T03:39:22.480Z,22.70
2018-07-31T03:44:24.980Z,22.70
2018-07-31T03:49:27.464Z,22.60
2018-07-31T03:54:29.957Z,22.60
2018-07-31T03:59:33.220Z,22.50
2018-07-31T04:04:35.731Z,22.50
2018-07-31T04:09:38.255Z,22.50
2018-07-31T04:14:40.758Z,22.50
2018-07-31T04:19:44.092Z,22.40
2018-07-31T04:24:46.592Z,22.40
2018-07-31T04:29:49.085Z,22.40
2018-07-31T04:34:51.568Z,22.40
2018-07-31T04:39:54.824Z,22.40
2018-07-31T04:44:57.314Z,22.40
2018-07-31T04:49:59.796Z,22.40
2018-07-31T04:55:02.293Z,22.40
2018-07-31T05:00:04.793Z,22.50
2018-07-31T05:05:07.273Z,22.50
2018-07-31T05:10:09.769Z,22.60
2018-07-31T05:15:12.373Z,22.60
2018-07-31T05:20:14.965Z,22.70
2018-07-31T05:25:17.498Z,22.80
2018-07-31T05:30:19.963Z,22.90
2018-07-31T05:35:22.458Z,23.00
2018-07-31T05:40:24.966Z,23.20
2018-07-31T05:45:28.184Z,23.30
2018-07-31T05:50:31.445Z,23.70
2018-07-31T05:55:34.500Z,23.70
2018-07-31T06:00:36.989Z,24.00
2018-07-31T06:05:39.494Z,24.30
2018-07-31T06:10:42.753Z,24.80
2018-07-31T06:15:45.233Z,24.80
2018-07-31T06:20:47.715Z,25.10
2018-07-31T06:25:50.199Z,25.40
2018-07-31T06:30:52.778Z,25.70
2018-07-31T06:35:55.738Z,26.10
2018-07-31T06:40:58.213Z,26.40
2018-07-31T06:46:00.881Z,26.80
2018-07-31T06:51:03.523Z,27.10
2018-07-31T06:56:06.106Z,27.40
2018-07-31T07:01:08.580Z,27.70
2018-07-31T07:06:11.483Z,28.10
2018-07-31T07:11:13.953Z,28.40
2018-07-31T07:16:16.437Z,28.70
2018-07-31T07:21:18.918Z,29.10
2018-07-31T07:26:21.404Z,29.30
2018-07-31T07:31:23.888Z,29.60
2018-07-31T07:36:26.372Z,29.90
2018-07-31T07:41:29.330Z,30.20
2018-07-31T07:46:32.561Z,30.80
2018-07-31T07:51:35.041Z,30.80
2018-07-31T07:56:38.330Z,31.10
2018-07-31T08:01:40.792Z,31.40
2018-07-31T08:06:43.281Z,31.60
2018-07-31T08:11:45.760Z,31.80
2018-07-31T08:16:48.644Z,32.10
2018-07-31T08:21:51.650Z,32.30
2018-07-31T08:26:54.100Z,32.50
2018-07-31T08:31:56.592Z,32.80
2018-07-31T08:36:59.068Z,33.00
2018-07-31T08:42:01.548Z,33.30
2018-07-31T08:47:04.836Z,33.50
2018-07-31T08:52:07.494Z,33.70
2018-07-31T08:57:10.161Z,33.90
2018-07-31T09:02:13.527Z,34.40
2018-07-31T09:07:16.840Z,34.40
2018-07-31T09:12:19.389Z,34.60
2018-07-31T09:17:21.876Z,34.80
2018-07-31T09:22:24.821Z,35.00
2018-07-31T09:27:27.492Z,35.20
2018-07-31T09:32:31.634Z,35.70
2018-07-31T09:37:34.335Z,35.60
2018-07-31T09:42:36.820Z,35.90
2018-07-31T09:47:39.298Z,36.10
2018-07-31T09:52:41.770Z,36.30
2018-07-31T09:57:44.250Z,36.40
2018-07-31T10:02:46.741Z,36.50
2018-07-31T10:07:49.245Z,36.80
2018-07-31T10:12:51.732Z,37.00
2018-07-31T10:17:54.235Z,37.10
2018-07-31T10:22:57.467Z,37.40
2018-07-31T10:27:59.944Z,37.40
2018-07-31T10:33:02.424Z,37.50
2018-07-31T10:38:04.914Z,37.60
2018-07-31T10:43:07.392Z,37.80
2018-07-31T10:48:09.883Z,38.00
2018-07-31T10:53:12.373Z,38.10
2018-07-31T10:58:14.966Z,38.20
2018-07-31T11:03:17.337Z,38.30
2018-07-31T11:08:19.824Z,38.40
2018-07-31T11:13:22.358Z,38.40
2018-07-31T11:18:24.796Z,38.50
2018-07-31T11:23:27.264Z,38.60
2018-07-31T11:28:29.744Z,38.70
2018-07-31T11:33:32.224Z,38.80
2018-07-31T11:38:34.714Z,39.00
2018-07-31T11:43:37.197Z,39.10
2018-07-31T11:48:39.685Z,39.20
2018-07-31T11:53:42.172Z,39.40
2018-07-31T11:58:44.644Z,39.40
2018-07-31T12:03:47.133Z,39.50
2018-07-31T12:08:49.613Z,39.50
2018-07-31T12:13:52.129Z,39.60
2018-07-31T12:18:54.581Z,39.70
2018-07-31T12:23:57.064Z,39.70
2018-07-31T12:28:59.681Z,39.80
2018-07-31T12:34:02.184Z,39.90
2018-07-31T12:39:04.664Z,39.90
2018-07-31T12:44:07.988Z,40.00
2018-07-31T12:49:10.715Z,40.00
2018-07-31T12:54:13.198Z,40.10
2018-07-31T12:59:15.682Z,40.10
2018-07-31T13:04:18.479Z,40.20
2018-07-31T13:09:20.965Z,40.20
2018-07-31T13:14:24.234Z,40.30
2018-07-31T13:19:26.721Z,40.30
2018-07-31T13:24:29.213Z,40.30
2018-07-31T13:29:31.701Z,40.40
2018-07-31T13:34:34.189Z,40.40
2018-07-31T13:39:36.674Z,40.40
2018-07-31T13:44:40.298Z,40.40
2018-07-31T13:49:42.796Z,40.40
2018-07-31T13:54:45.280Z,40.40
2018-07-31T13:59:47.769Z,40.40
2018-07-31T14:04:50.507Z,40.40
2018-07-31T14:09:53.003Z,40.40
2018-07-31T14:14:55.481Z,40.40
2018-07-31T14:19:58.724Z,40.00
2018-07-31T14:25:01.214Z,40.00
2018-07-31T14:30:03.701Z,40.00
2018-07-31T14:35:06.181Z,39.90
2018-07-31T14:40:09.678Z,39.80
2018-07-31T14:45:12.156Z,39.60
2018-07-31T14:50:14.653Z,39.50
2018-07-31T14:55:17.140Z,39.20
2018-07-31T15:00:19.642Z,39.00
2018-07-31T15:05:22.136Z,38.70
2018-07-31T15:10:24.625Z,38.50
2018-07-31T15:15:27.109Z,38.30
2018-07-31T15:20:29.595Z,38.00
2018-07-31T15:25:32.849Z,37.60
2018-07-31T15:30:35.328Z,37.50
2018-07-31T15:35:37.815Z,37.40
2018-07-31T15:40:40.296Z,37.20
2018-07-31T15:45:42.774Z,37.00
2018-07-31T15:50:45.257Z,36.90
2018-07-31T15:55:47.748Z,36.70
2018-07-31T16:00:50.236Z,36.50
2018-07-31T16:05:52.885Z,36.40
2018-07-31T16:10:55.328Z,36.30
2018-07-31T16:15:57.825Z,36.20
2018-07-31T16:21:00.305Z,36.10
2018-07-31T16:26:02.800Z,36.00
2018-07-31T16:31:06.030Z,36.00
2018-07-31T16:36:08.527Z,36.00
2018-07-31T16:41:11.005Z,36.00
2018-07-31T16:46:13.494Z,36.00
2018-07-31T16:51:16.790Z,35.90
2018-07-31T16:56:19.241Z,35.90
2018-07-31T17:01:21.716Z,35.80
2018-07-31T17:06:24.209Z,35.70
2018-07-31T17:11:26.692Z,35.60
2018-07-31T17:16:29.185Z,35.50
2018-07-31T17:21:31.671Z,35.30
2018-07-31T17:26:34.146Z,35.20
2018-07-31T17:31:36.631Z,35.10
2018-07-31T17:36:39.112Z,35.00
2018-07-31T17:41:41.601Z,34.80
2018-07-31T17:46:44.084Z,34.60
2018-07-31T17:51:46.570Z,34.50
2018-07-31T17:56:49.333Z,34.30
2018-07-31T18:01:51.877Z,34.20
2018-07-31T18:06:54.371Z,34.00
2018-07-31T18:11:56.973Z,33.90
2018-07-31T18:17:00.224Z,33.60
2018-07-31T18:22:02.789Z,33.50
2018-07-31T18:27:05.283Z,33.40
2018-07-31T18:32:07.884Z,33.30
2018-07-31T18:37:10.393Z,33.10
2018-07-31T18:42:12.994Z,33.00
2018-07-31T18:47:15.532Z,32.80
2018-07-31T18:52:17.986Z,32.70
2018-07-31T18:57:20.574Z,32.50
2018-07-31T19:02:23.824Z,32.20
2018-07-31T19:07:26.305Z,32.20
2018-07-31T19:12:28.788Z,32.00
2018-07-31T19:17:31.297Z,31.90
2018-07-31T19:22:33.786Z,31.70
2018-07-31T19:27:36.304Z,31.60
2018-07-31T19:32:38.792Z,31.40
2018-07-31T19:37:41.264Z,31.20
2018-07-31T19:42:43.748Z,31.10
2018-07-31T19:47:46.311Z,30.90
2018-07-31T19:52:48.788Z,30.80
2018-07-31T19:57:51.276Z,30.70
2018-07-31T20:02:54.527Z,30.40
2018-07-31T20:07:57.013Z,30.30
2018-07-31T20:12:59.493Z,30.20
2018-07-31T20:18:01.981Z,30.10
2018-07-31T20:23:04.459Z,29.90
2018-07-31T20:28:06.949Z,29.80
2018-07-31T20:33:09.438Z,29.60
2018-07-31T20:38:11.921Z,29.50
2018-07-31T20:43:14.452Z,29.30
2018-07-31T20:48:16.876Z,29.20
2018-07-31T20:53:19.357Z,29.10
2018-07-31T20:58:22.604Z,28.80
2018-07-31T21:03:25.082Z,28.80
2018-07-31T21:08:27.570Z,28.70
2018-07-31T21:13:30.045Z,28.60
2018-07-31T21:18:32.532Z,28.40
2018-07-31T21:23:35.009Z,28.30
2018-07-31T21:28:37.490Z,28.20
2018-07-31T21:33:39.978Z,28.10
2018-07-31T21:38:42.470Z,28.00
2018-07-31T21:43:44.949Z,27.90
2018-07-31T21:48:47.428Z,27.80
2018-07-31T21:53:49.909Z,27.70
2018-07-31T21:58:52.393Z,27.60
2018-07-31T22:03:54.885Z,27.50
2018-07-31T22:08:57.369Z,27.40
2018-07-31T22:13:59.905Z,27.30
2018-07-31T22:19:02.340Z,27.30
2018-07-31T22:24:04.824Z,27.20
2018-07-31T22:29:07.305Z,27.20
2018-07-31T22:34:09.792Z,27.20
2018-07-31T22:39:12.272Z,27.10
2018-07-31T22:44:14.753Z,27.10
2018-07-31T22:49:17.233Z,27.10
2018-07-31T22:54:19.733Z,27.00
2018-07-31T22:59:22.228Z,26.80
2018-07-31T23:04:24.742Z,26.70
2018-07-31T23:09:27.234Z,26.50
2018-07-31T23:14:29.713Z,26.40
2018-07-31T23:19:32.198Z,26.20
2018-07-31T23:24:35.449Z,26.00
2018-07-31T23:29:37.955Z,25.90
2018-07-31T23:34:40.452Z,25.80
2018-07-31T23:39:42.940Z,25.70
2018-07-31T23:44:45.448Z,25.70
2018-07-31T23:49:47.961Z,25.60
2018-07-31T23:54:50.445Z,25.50
2018-07-31T23:59:52.938Z,25.40
